MSC Jenny — CQDA — position and weather

sailwx.info

Track history (hours):
 
Tides and Currents Weather Stations Pressure Air Temp Water Temp Dewpoint Dewpoint Depression Visibility Wind Speed Wind Dir Waves Ship Positions

MSC Jenny

Last reported at 2017-Dec-15 21:00 UTC. Time now 2017-Dec-15 21:22 UTC.
Position N 37°28' E 023°49'.

; draft 10 m.

Type: Cargo ship. MMSI: 255805777.

Date/timePositionNaut miles runAvg speedWind from/ knotsBaromVisibWave heightAir tempDewpointWater temp
2017-Dec-15 21:00N 37°28' E 023°49'712.9
2017-Dec-15 20:30N 37°34' E 023°46'612.8
2017-Dec-15 20:00N 37°39' E 023°42'713.4
2017-Dec-15 19:30N 37°45' E 023°38'612.9
2017-Dec-15 19:01N 37°51' E 023°36'5 9.6
2017-Dec-15 18:31N 37°56' E 023°36'1 2.2
2017-Dec-15 17:59N 37°57' E 023°36'0 0.0
2017-Dec-15 17:29N 37°57' E 023°36'0 0.0
2017-Dec-15 16:59N 37°57' E 023°36'0 0.0
2017-Dec-15 16:29N 37°57' E 023°36'0 0.0
2017-Dec-15 15:59N 37°57' E 023°36'0 0.0
2017-Dec-15 15:29N 37°57' E 023°36'0 0.0
2017-Dec-15 14:59N 37°57' E 023°36'0 0.0
2017-Dec-15 14:29N 37°57' E 023°36'0 0.0
2017-Dec-15 13:59N 37°57' E 023°36'0 0.0
2017-Dec-15 13:29N 37°57' E 023°36'0 0.0
2017-Dec-15 12:59N 37°57' E 023°36'0 0.0
2017-Dec-15 12:29N 37°57' E 023°36'0 0.0
2017-Dec-15 11:59N 37°57' E 023°36'0 0.0
2017-Dec-15 11:29N 37°57' E 023°36'0 0.0
2017-Dec-15 10:59N 37°57' E 023°36'0 0.0
2017-Dec-15 10:29N 37°57' E 023°36'0 0.0
2017-Dec-15 09:59N 37°57' E 023°36'0 0.0
2017-Dec-15 09:29N 37°57' E 023°36'0 0.0
2017-Dec-15 08:59N 37°57' E 023°36'0 0.0
2017-Dec-15 08:29N 37°57' E 023°36'0 0.0
2017-Dec-15 07:59N 37°57' E 023°36'0 0.0
2017-Dec-15 07:29N 37°57' E 023°36'0 0.3
2017-Dec-15 07:01N 37°57' E 023°36'2 4.4
2017-Dec-15 06:30N 37°55' E 023°37'1 1.0
2017-Dec-15 06:00N 37°55' E 023°37'1 1.8
2017-Dec-15 05:30N 37°54' E 023°37'1 1.7
2017-Dec-15 05:01N 37°53' E 023°37'1 2.9
2017-Dec-15 04:30N 37°52' E 023°39'2 3.2
2017-Dec-15 04:01N 37°51' E 023°40'10 6.4
2017-Dec-15 02:30N 37°42' E 023°44'12 7.9
2017-Dec-15 01:01N 37°30' E 023°47'1 1.4
2017-Dec-15 00:30N 37°31' E 023°47'19 3.0
2017-Dec-14 18:18N 37°37' E 024°09'3 9.6
2017-Dec-14 18:01N 37°39' E 024°11'6 9.7
2017-Dec-14 17:25N 37°44' E 024°15'410.0
2017-Dec-14 17:01N 37°46' E 024°19'5 9.8
2017-Dec-14 16:30N 37°49' E 024°25'5 9.8
2017-Dec-14 16:01N 37°52' E 024°30'10 9.7
2017-Dec-14 15:00N 37°59' E 024°38'14 9.8
2017-Dec-14 13:33N 38°10' E 024°49'2 9.4
2017-Dec-14 13:19N 38°12' E 024°51'3 9.6
2017-Dec-14 13:00N 38°14' E 024°54'5 9.8
2017-Dec-14 12:28N 38°18' E 024°58'510.0
2017-Dec-14 12:00N 38°21' E 025°03'510.1
2017-Dec-14 11:30N 38°25' E 025°07'1310.7
2017-Dec-14 10:15N 38°34' E 025°19'3 9.8
2017-Dec-14 09:55N 38°37' E 025°22'35 1.0
2017-Dec-12 21:22N 38°53' E 026°01'6812.4
2017-Dec-12 15:55N 40°01' E 026°04'13110.9
2017-Dec-12 03:53N 40°45' E 028°46'513.2
2017-Dec-12 03:30N 40°45' E 028°52'612.9
2017-Dec-12 03:00N 40°44' E 029°01'612.7
2017-Dec-12 02:30N 40°44' E 029°09'613.0
2017-Dec-12 02:00N 40°44' E 029°18'610.6
2017-Dec-12 01:29N 40°45' E 029°25'510.8
2017-Dec-12 01:00N 40°46' E 029°32'0 0.7
2017-Dec-12 00:30N 40°46' E 029°32'0 0.0
2017-Dec-11 23:09N 40°46' E 029°32'0 0.0
2017-Dec-11 17:48N 40°46' E 029°32'0 0.9
2017-Dec-11 17:28N 40°46' E 029°32'5 8.8
2017-Dec-11 16:56N 40°44' E 029°26'511.3
2017-Dec-11 16:30N 40°43' E 029°20'4 7.3
2017-Dec-11 16:00N 40°43' E 029°15'2 4.5
2017-Dec-11 15:30N 40°43' E 029°12'0 0.5
2017-Dec-11 15:00N 40°43' E 029°12'0 0.8
2017-Dec-11 14:30N 40°43' E 029°11'0 0.6
2017-Dec-11 14:00N 40°43' E 029°11'1 1.8
2017-Dec-11 13:30N 40°43' E 029°10'3 6.7
2017-Dec-11 13:00N 40°43' E 029°06'714.2
2017-Dec-11 12:31N 40°44' E 028°57'814.3
2017-Dec-11 11:58N 40°46' E 028°47'8 9.2
2017-Dec-11 11:06N 40°51' E 028°39'5 0.4
2017-Dec-10 21:31N 40°56' E 028°41'1 4.8
2017-Dec-10 21:21N 40°55' E 028°41'33 1.3
2017-Dec-09 20:17N 40°26' E 029°02'215 4.9
2017-Dec-08 00:34N 37°55' E 025°45'113.6
2017-Dec-08 00:30N 37°54' E 025°45'713.5
2017-Dec-08 00:00N 37°47' E 025°44'713.2
2017-Dec-07 23:30N 37°41' E 025°44'1813.5
2017-Dec-07 22:09N 37°22' E 025°44'213.3
2017-Dec-07 22:00N 37°20' E 025°44'612.5
2017-Dec-07 21:30N 37°15' E 025°48'612.9
2017-Dec-07 21:00N 37°11' E 025°54'713.1
2017-Dec-07 20:30N 37°06' E 025°60'713.4
2017-Dec-07 20:00N 37°01' E 026°06'713.3
2017-Dec-07 19:30N 36°57' E 026°12'713.0
2017-Dec-07 19:00N 36°52' E 026°18'612.9
2017-Dec-07 18:30N 36°48' E 026°24'612.8
2017-Dec-07 18:00N 36°44' E 026°30'713.2
2017-Dec-07 17:30N 36°39' E 026°35'713.4
2017-Dec-07 17:00N 36°34' E 026°41'713.3
2017-Dec-07 16:30N 36°29' E 026°47'1813.3
2017-Dec-07 15:10N 36°16' E 027°01'213.6
2017-Dec-07 15:00N 36°14' E 027°03'  
Track history (hours):
 
Tides and Currents Weather Stations Pressure Air Temp Water Temp Dewpoint Dewpoint Depression Visibility Wind Speed Wind Dir Waves Ship Positions

MSC Jenny

Last reported at 2017-Dec-15 21:00 UTC. Time now 2017-Dec-15 21:22 UTC.
Position N 37°28' E 023°49'.

; draft 10 m.

Type: Cargo ship. MMSI: 255805777.

Date/timePositionNaut miles runAvg speedWind from/ knotsBaromVisibWave heightAir tempDewpointWater temp
2017-Dec-15 21:00N 37°28' E 023°49'712.9
2017-Dec-15 20:30N 37°34' E 023°46'612.8
2017-Dec-15 20:00N 37°39' E 023°42'713.4
2017-Dec-15 19:30N 37°45' E 023°38'612.9
2017-Dec-15 19:01N 37°51' E 023°36'5 9.6
2017-Dec-15 18:31N 37°56' E 023°36'1 2.2
2017-Dec-15 17:59N 37°57' E 023°36'0 0.0
2017-Dec-15 17:29N 37°57' E 023°36'0 0.0
2017-Dec-15 16:59N 37°57' E 023°36'0 0.0
2017-Dec-15 16:29N 37°57' E 023°36'0 0.0
2017-Dec-15 15:59N 37°57' E 023°36'0 0.0
2017-Dec-15 15:29N 37°57' E 023°36'0 0.0
2017-Dec-15 14:59N 37°57' E 023°36'0 0.0
2017-Dec-15 14:29N 37°57' E 023°36'0 0.0
2017-Dec-15 13:59N 37°57' E 023°36'0 0.0
2017-Dec-15 13:29N 37°57' E 023°36'0 0.0
2017-Dec-15 12:59N 37°57' E 023°36'0 0.0
2017-Dec-15 12:29N 37°57' E 023°36'0 0.0
2017-Dec-15 11:59N 37°57' E 023°36'0 0.0
2017-Dec-15 11:29N 37°57' E 023°36'0 0.0
2017-Dec-15 10:59N 37°57' E 023°36'0 0.0
2017-Dec-15 10:29N 37°57' E 023°36'0 0.0
2017-Dec-15 09:59N 37°57' E 023°36'0 0.0
2017-Dec-15 09:29N 37°57' E 023°36'0 0.0
2017-Dec-15 08:59N 37°57' E 023°36'0 0.0
2017-Dec-15 08:29N 37°57' E 023°36'0 0.0
2017-Dec-15 07:59N 37°57' E 023°36'0 0.0
2017-Dec-15 07:29N 37°57' E 023°36'0 0.3
2017-Dec-15 07:01N 37°57' E 023°36'2 4.4
2017-Dec-15 06:30N 37°55' E 023°37'1 1.0
2017-Dec-15 06:00N 37°55' E 023°37'1 1.8
2017-Dec-15 05:30N 37°54' E 023°37'1 1.7
2017-Dec-15 05:01N 37°53' E 023°37'1 2.9
2017-Dec-15 04:30N 37°52' E 023°39'2 3.2
2017-Dec-15 04:01N 37°51' E 023°40'10 6.4
2017-Dec-15 02:30N 37°42' E 023°44'12 7.9
2017-Dec-15 01:01N 37°30' E 023°47'1 1.4
2017-Dec-15 00:30N 37°31' E 023°47'19 3.0
2017-Dec-14 18:18N 37°37' E 024°09'3 9.6
2017-Dec-14 18:01N 37°39' E 024°11'6 9.7
2017-Dec-14 17:25N 37°44' E 024°15'410.0
2017-Dec-14 17:01N 37°46' E 024°19'5 9.8
2017-Dec-14 16:30N 37°49' E 024°25'5 9.8
2017-Dec-14 16:01N 37°52' E 024°30'10 9.7
2017-Dec-14 15:00N 37°59' E 024°38'14 9.8
2017-Dec-14 13:33N 38°10' E 024°49'2 9.4
2017-Dec-14 13:19N 38°12' E 024°51'3 9.6
2017-Dec-14 13:00N 38°14' E 024°54'5 9.8
2017-Dec-14 12:28N 38°18' E 024°58'510.0
2017-Dec-14 12:00N 38°21' E 025°03'510.1
2017-Dec-14 11:30N 38°25' E 025°07'1310.7
2017-Dec-14 10:15N 38°34' E 025°19'3 9.8
2017-Dec-14 09:55N 38°37' E 025°22'35 1.0
2017-Dec-12 21:22N 38°53' E 026°01'6812.4
2017-Dec-12 15:55N 40°01' E 026°04'13110.9
2017-Dec-12 03:53N 40°45' E 028°46'513.2
2017-Dec-12 03:30N 40°45' E 028°52'612.9
2017-Dec-12 03:00N 40°44' E 029°01'612.7
2017-Dec-12 02:30N 40°44' E 029°09'613.0
2017-Dec-12 02:00N 40°44' E 029°18'610.6
2017-Dec-12 01:29N 40°45' E 029°25'510.8
2017-Dec-12 01:00N 40°46' E 029°32'0 0.7
2017-Dec-12 00:30N 40°46' E 029°32'0 0.0
2017-Dec-11 23:09N 40°46' E 029°32'0 0.0
2017-Dec-11 17:48N 40°46' E 029°32'0 0.9
2017-Dec-11 17:28N 40°46' E 029°32'5 8.8
2017-Dec-11 16:56N 40°44' E 029°26'511.3
2017-Dec-11 16:30N 40°43' E 029°20'4 7.3
2017-Dec-11 16:00N 40°43' E 029°15'2 4.5
2017-Dec-11 15:30N 40°43' E 029°12'0 0.5
2017-Dec-11 15:00N 40°43' E 029°12'0 0.8
2017-Dec-11 14:30N 40°43' E 029°11'0 0.6
2017-Dec-11 14:00N 40°43' E 029°11'1 1.8
2017-Dec-11 13:30N 40°43' E 029°10'3 6.7
2017-Dec-11 13:00N 40°43' E 029°06'714.2
2017-Dec-11 12:31N 40°44' E 028°57'814.3
2017-Dec-11 11:58N 40°46' E 028°47'8 9.2
2017-Dec-11 11:06N 40°51' E 028°39'5 0.4
2017-Dec-10 21:31N 40°56' E 028°41'1 4.8
2017-Dec-10 21:21N 40°55' E 028°41'33 1.3
2017-Dec-09 20:17N 40°26' E 029°02'215 4.9
2017-Dec-08 00:34N 37°55' E 025°45'113.6
2017-Dec-08 00:30N 37°54' E 025°45'713.5
2017-Dec-08 00:00N 37°47' E 025°44'713.2
2017-Dec-07 23:30N 37°41' E 025°44'1813.5
2017-Dec-07 22:09N 37°22' E 025°44'213.3
2017-Dec-07 22:00N 37°20' E 025°44'612.5
2017-Dec-07 21:30N 37°15' E 025°48'612.9
2017-Dec-07 21:00N 37°11' E 025°54'713.1
2017-Dec-07 20:30N 37°06' E 025°60'713.4
2017-Dec-07 20:00N 37°01' E 026°06'713.3
2017-Dec-07 19:30N 36°57' E 026°12'713.0
2017-Dec-07 19:00N 36°52' E 026°18'612.9
2017-Dec-07 18:30N 36°48' E 026°24'612.8
2017-Dec-07 18:00N 36°44' E 026°30'713.2
2017-Dec-07 17:30N 36°39' E 026°35'713.4
2017-Dec-07 17:00N 36°34' E 026°41'713.3
2017-Dec-07 16:30N 36°29' E 026°47'1813.3
2017-Dec-07 15:10N 36°16' E 027°01'213.6
2017-Dec-07 15:00N 36°14' E 027°03'  

Dump ship's entire track history